createdAt,value
2022-09-02T00:01:22.595Z,2.37
2022-09-02T00:03:49.553Z,2.10
2022-09-02T00:06:17.401Z,2.30
2022-09-02T00:08:53.111Z,2.97
2022-09-02T00:11:23.747Z,2.70
2022-09-02T00:13:51.754Z,2.37
2022-09-02T00:16:18.876Z,3.20
2022-09-02T00:18:48.370Z,2.20
2022-09-02T00:21:16.129Z,2.03
2022-09-02T00:23:44.356Z,1.70
2022-09-02T00:26:12.510Z,1.93
2022-09-02T00:28:40.081Z,1.83
2022-09-02T00:31:14.242Z,1.83
2022-09-02T00:33:41.033Z,1.70
2022-09-02T00:36:07.996Z,1.70
2022-09-02T00:38:35.837Z,1.43
2022-09-02T00:41:05.949Z,2.50
2022-09-02T00:43:49.152Z,2.03
2022-09-02T00:46:18.510Z,2.60
2022-09-02T00:48:53.571Z,2.37
2022-09-02T00:51:20.511Z,2.17
2022-09-02T00:53:49.916Z,2.37
2022-09-02T00:56:25.468Z,2.37
2022-09-02T00:58:52.769Z,2.40
2022-09-02T01:01:22.633Z,2.80
2022-09-02T01:03:50.549Z,1.70
2022-09-02T01:06:25.182Z,2.07
2022-09-02T01:08:59.525Z,1.67
2022-09-02T01:11:39.091Z,1.53
2022-09-02T01:14:07.428Z,1.70
2022-09-02T01:16:42.157Z,1.60
2022-09-02T01:19:20.244Z,1.87
2022-09-02T01:21:57.791Z,1.80
2022-09-02T01:24:29.883Z,1.60
2022-09-02T01:26:59.422Z,1.50
2022-09-02T01:29:27.644Z,1.60
2022-09-02T01:31:54.342Z,1.60
2022-09-02T01:34:21.099Z,1.77
2022-09-02T01:36:47.893Z,1.97
2022-09-02T01:39:14.661Z,1.73
2022-09-02T01:41:41.361Z,1.73
2022-09-02T01:44:08.534Z,2.70
2022-09-02T01:46:35.378Z,2.00
2022-09-02T01:49:02.193Z,2.00
2022-09-02T01:51:28.891Z,1.80
2022-09-02T01:53:55.534Z,1.63
2022-09-02T01:56:22.118Z,1.90
2022-09-02T01:58:49.114Z,1.70
2022-09-02T02:01:15.823Z,2.13
2022-09-02T02:03:42.861Z,2.20
2022-09-02T02:06:12.660Z,1.90
2022-09-02T02:08:40.107Z,2.00
2022-09-02T02:11:06.854Z,2.10
2022-09-02T02:13:33.985Z,1.73
2022-09-02T02:16:00.910Z,1.77
2022-09-02T02:18:27.559Z,2.03
2022-09-02T02:20:54.148Z,2.27
2022-09-02T02:23:20.926Z,1.67
2022-09-02T02:25:47.542Z,1.77
2022-09-02T02:28:14.683Z,1.93
2022-09-02T02:30:41.354Z,1.60
2022-09-02T02:33:07.946Z,1.60
2022-09-02T02:35:34.899Z,1.70
2022-09-02T02:38:03.768Z,1.50
2022-09-02T02:40:31.420Z,1.50
2022-09-02T02:42:58.135Z,1.60
2022-09-02T02:45:25.667Z,1.50
2022-09-02T02:47:53.397Z,1.60
2022-09-02T02:50:21.883Z,1.70
2022-09-02T02:52:49.068Z,1.50
2022-09-02T02:55:16.729Z,1.90
2022-09-02T02:57:45.242Z,1.60
2022-09-02T03:00:21.879Z,1.50
2022-09-02T03:02:49.858Z,1.80
2022-09-02T03:05:16.755Z,1.50
2022-09-02T03:07:43.372Z,1.77
2022-09-02T03:10:11.624Z,1.60
2022-09-02T03:12:39.737Z,1.90
2022-09-02T03:15:08.842Z,2.07
2022-09-02T03:17:35.617Z,2.00
2022-09-02T03:20:02.463Z,1.70
2022-09-02T03:22:29.529Z,2.00
2022-09-02T03:24:56.428Z,2.00
2022-09-02T03:27:23.600Z,2.13
2022-09-02T03:29:50.203Z,1.90
2022-09-02T03:32:16.802Z,2.00
2022-09-02T03:34:43.635Z,1.80
2022-09-02T03:37:10.509Z,1.87
2022-09-02T03:39:39.122Z,2.00
2022-09-02T03:42:06.017Z,1.90
2022-09-02T03:44:34.354Z,1.63
2022-09-02T03:47:01.122Z,1.83
2022-09-02T03:49:28.330Z,1.93
2022-09-02T03:51:54.969Z,1.70
2022-09-02T03:54:21.712Z,1.97
2022-09-02T03:56:48.756Z,2.00
2022-09-02T03:59:15.473Z,2.00
2022-09-02T04:01:42.173Z,1.83
2022-09-02T04:04:09.392Z,2.20
2022-09-02T04:06:36.465Z,1.90
2022-09-02T04:09:03.838Z,2.13
2022-09-02T04:11:30.960Z,1.87
2022-09-02T04:13:58.760Z,1.70
2022-09-02T04:16:29.056Z,1.90
2022-09-02T04:18:57.701Z,2.00
2022-09-02T04:21:25.716Z,1.73
2022-09-02T04:23:52.650Z,2.13
2022-09-02T04:26:20.497Z,2.10
2022-09-02T04:28:48.455Z,1.80
2022-09-02T04:31:18.679Z,2.30
2022-09-02T04:33:45.745Z,2.17
2022-09-02T04:36:15.944Z,2.13
2022-09-02T04:38:42.558Z,2.10
2022-09-02T04:41:16.105Z,1.80
2022-09-02T04:43:42.934Z,2.10
2022-09-02T04:46:12.499Z,2.20
2022-09-02T04:48:39.876Z,2.07
2022-09-02T04:51:09.889Z,2.60
2022-09-02T04:53:36.614Z,1.90
2022-09-02T04:56:05.151Z,2.00
2022-09-02T04:58:31.740Z,2.00
2022-09-02T05:00:58.323Z,1.80
2022-09-02T05:03:25.161Z,2.03
2022-09-02T05:06:02.253Z,1.90
2022-09-02T05:08:28.882Z,1.77
2022-09-02T05:10:55.565Z,1.63
2022-09-02T05:13:23.860Z,2.00
2022-09-02T05:15:50.686Z,1.90
2022-09-02T05:18:17.278Z,4.07
2022-09-02T05:20:43.862Z,6.17
2022-09-02T05:23:12.097Z,2.17
2022-09-02T05:25:40.080Z,2.53
2022-09-02T05:28:10.976Z,2.00
2022-09-02T05:30:40.064Z,2.10
2022-09-02T05:33:07.066Z,2.20
2022-09-02T05:35:41.076Z,3.53
2022-09-02T05:38:12.928Z,1.80
2022-09-02T05:40:39.771Z,1.80
2022-09-02T05:43:07.037Z,1.80
2022-09-02T05:45:34.445Z,1.70
2022-09-02T05:48:20.983Z,1.70
2022-09-02T05:50:50.149Z,1.80
2022-09-02T05:53:16.891Z,1.90
2022-09-02T05:55:43.815Z,1.63
2022-09-02T05:58:10.419Z,1.47
2022-09-02T06:00:38.280Z,6.33
2022-09-02T06:03:04.961Z,2.00
2022-09-02T06:05:32.047Z,9.50
2022-09-02T06:07:58.625Z,2.27
2022-09-02T06:10:25.221Z,3.50
2022-09-02T06:12:51.847Z,2.83
2022-09-02T06:15:18.567Z,3.63
2022-09-02T06:17:45.178Z,2.40
2022-09-02T06:20:12.009Z,2.30
2022-09-02T06:22:38.697Z,2.20
2022-09-02T06:25:05.888Z,2.73
2022-09-02T06:27:33.615Z,3.00
2022-09-02T06:30:00.175Z,3.83
2022-09-02T06:32:26.826Z,2.77
2022-09-02T06:34:53.379Z,2.30
2022-09-02T06:37:19.940Z,2.70
2022-09-02T06:39:48.354Z,2.23
2022-09-02T06:42:15.120Z,2.60
2022-09-02T06:44:42.184Z,2.60
2022-09-02T06:47:08.777Z,2.13
2022-09-02T06:49:35.375Z,2.30
2022-09-02T06:52:02.147Z,2.20
2022-09-02T06:54:28.758Z,2.10
2022-09-02T06:56:55.370Z,1.93
2022-09-02T06:59:22.667Z,1.50
2022-09-02T07:01:49.771Z,1.77
2022-09-02T07:04:36.352Z,1.50
2022-09-02T07:07:05.435Z,1.50
2022-09-02T07:09:32.017Z,1.50
2022-09-02T07:12:05.303Z,1.40
2022-09-02T07:14:37.530Z,1.37
2022-09-02T07:17:04.357Z,1.40
2022-09-02T07:19:31.294Z,1.37
2022-09-02T07:21:57.890Z,1.53
2022-09-02T07:24:24.525Z,1.40
2022-09-02T07:26:55.316Z,1.20
2022-09-02T07:29:22.905Z,1.27
2022-09-02T07:31:50.070Z,1.23
2022-09-02T07:34:17.939Z,1.37
2022-09-02T07:36:45.931Z,1.60
2022-09-02T07:39:14.064Z,1.17
2022-09-02T07:41:42.471Z,1.53
2022-09-02T07:44:09.113Z,1.60
2022-09-02T07:46:36.729Z,8.33
2022-09-02T07:49:09.234Z,8.40
2022-09-02T07:51:38.402Z,10.13
2022-09-02T07:54:06.216Z,3.20
2022-09-02T07:56:33.202Z,1.87
2022-09-02T07:58:59.944Z,1.60
2022-09-02T08:01:27.294Z,1.23
2022-09-02T08:03:54.084Z,1.10
2022-09-02T08:06:33.644Z,1.23
2022-09-02T08:09:05.015Z,1.40
2022-09-02T08:11:32.857Z,1.00
2022-09-02T08:14:00.739Z,1.13
2022-09-02T08:16:28.269Z,0.90
2022-09-02T08:18:55.450Z,1.40
2022-09-02T08:21:22.007Z,1.03
2022-09-02T08:23:50.613Z,1.10
2022-09-02T08:26:18.555Z,0.80
2022-09-02T08:28:45.433Z,0.53
2022-09-02T08:31:12.090Z,0.80
2022-09-02T08:33:38.751Z,1.00
2022-09-02T08:36:08.523Z,1.00
2022-09-02T08:38:36.784Z,1.10
2022-09-02T08:41:13.855Z,1.43
2022-09-02T08:43:43.357Z,0.80
2022-09-02T08:46:15.269Z,1.00
2022-09-02T08:48:49.472Z,0.60
2022-09-02T08:51:24.089Z,0.83
2022-09-02T08:54:00.536Z,0.90
2022-09-02T08:56:28.334Z,0.70
2022-09-02T08:58:57.987Z,0.40
2022-09-02T09:01:39.215Z,0.40
2022-09-02T09:04:24.164Z,0.90
2022-09-02T09:07:06.020Z,0.60
2022-09-02T09:10:00.021Z,0.80
2022-09-02T09:12:37.968Z,0.70
2022-09-02T09:15:35.909Z,0.70
2022-09-02T09:18:07.660Z,0.80
2022-09-02T09:20:44.828Z,1.00
2022-09-02T09:23:28.420Z,0.87
2022-09-02T09:26:05.964Z,0.90
2022-09-02T09:28:41.051Z,0.50
2022-09-02T09:31:29.741Z,1.00
2022-09-02T09:34:07.993Z,1.03
2022-09-02T09:36:40.437Z,2.83
2022-09-02T09:39:24.556Z,1.00
2022-09-02T09:41:54.063Z,0.90
2022-09-02T09:44:45.125Z,0.80
2022-09-02T09:47:19.727Z,0.50
2022-09-02T09:49:51.420Z,0.60
2022-09-02T09:52:25.244Z,0.60
2022-09-02T09:55:12.900Z,0.40
2022-09-02T09:57:41.924Z,0.60
2022-09-02T10:00:25.756Z,0.97
2022-09-02T10:02:56.647Z,0.37
2022-09-02T10:05:25.920Z,0.67
2022-09-02T10:08:03.945Z,0.70
2022-09-02T10:10:37.094Z,0.60
2022-09-02T10:13:24.897Z,1.90
2022-09-02T10:16:19.147Z,2.17
2022-09-02T10:18:56.649Z,0.80
2022-09-02T10:21:50.088Z,1.20
2022-09-02T10:24:39.884Z,1.43
2022-09-02T10:27:15.202Z,0.70
2022-09-02T10:29:49.128Z,0.40
2022-09-02T10:32:27.306Z,0.40
2022-09-02T10:35:17.616Z,0.60
2022-09-02T10:37:44.239Z,0.50
2022-09-02T10:40:20.145Z,0.70
2022-09-02T10:43:06.419Z,0.67
2022-09-02T10:45:45.290Z,0.80
2022-09-02T10:48:35.435Z,1.10
2022-09-02T10:51:10.850Z,0.40
2022-09-02T10:53:59.796Z,0.87
2022-09-02T10:56:33.119Z,0.80
2022-09-02T10:59:08.080Z,0.90
2022-09-02T11:01:55.160Z,0.93
2022-09-02T11:04:43.259Z,1.10
2022-09-02T11:07:17.183Z,1.07
2022-09-02T11:09:52.993Z,0.83
2022-09-02T11:12:41.931Z,0.90
2022-09-02T11:15:44.482Z,0.63
2022-09-02T11:18:31.683Z,0.83
2022-09-02T11:21:18.665Z,0.47
2022-09-02T11:23:52.427Z,0.60
2022-09-02T11:26:30.336Z,0.50
2022-09-02T11:29:15.167Z,0.60
2022-09-02T11:31:50.837Z,0.40
2022-09-02T11:34:26.170Z,0.57
2022-09-02T11:36:53.054Z,1.10
2022-09-02T11:39:56.309Z,1.00
2022-09-02T11:42:38.254Z,1.33
2022-09-02T11:45:47.688Z,1.53
2022-09-02T11:48:24.128Z,0.67
2022-09-02T11:51:10.690Z,1.03
2022-09-02T11:53:42.247Z,0.97
2022-09-02T11:56:16.787Z,1.20
2022-09-02T11:58:45.938Z,1.10
2022-09-02T12:01:15.334Z,0.70
2022-09-02T12:04:58.143Z,1.27
2022-09-02T12:07:26.452Z,0.50
2022-09-02T12:09:57.251Z,0.67
2022-09-02T12:12:39.010Z,2.20
2022-09-02T12:15:06.088Z,1.43
2022-09-02T12:17:39.572Z,1.30
2022-09-02T12:20:09.759Z,1.20
2022-09-02T12:22:40.661Z,1.20
2022-09-02T12:25:26.763Z,1.10
2022-09-02T12:28:19.081Z,1.47
2022-09-02T12:31:03.138Z,1.20
2022-09-02T12:33:33.567Z,0.57
2022-09-02T12:36:01.123Z,1.02
2022-09-02T12:38:33.006Z,1.30
2022-09-02T12:41:13.446Z,1.63
2022-09-02T12:43:44.690Z,1.77
2022-09-02T12:46:42.340Z,2.22
2022-09-02T12:49:33.728Z,1.40
2022-09-02T12:52:08.547Z,0.80
2022-09-02T12:54:39.776Z,0.67
2022-09-02T12:57:08.071Z,0.77
2022-09-02T12:59:38.214Z,1.70
2022-09-02T13:02:32.072Z,1.60
2022-09-02T13:05:24.979Z,1.33
2022-09-02T13:08:06.523Z,1.23
2022-09-02T13:10:41.514Z,0.60
2022-09-02T13:13:26.779Z,0.73
2022-09-02T13:16:21.896Z,0.97
2022-09-02T13:19:07.330Z,0.70
2022-09-02T13:22:01.635Z,0.52
2022-09-02T13:24:47.047Z,0.90
2022-09-02T13:27:35.628Z,0.63
2022-09-02T13:30:14.311Z,0.75
2022-09-02T13:32:41.819Z,0.70
2022-09-02T13:35:24.070Z,0.82
2022-09-02T13:38:02.778Z,0.43
2022-09-02T13:40:35.747Z,0.43
2022-09-02T13:43:16.200Z,0.60
2022-09-02T13:45:44.030Z,0.60
2022-09-02T13:48:11.799Z,0.60
2022-09-02T13:50:43.667Z,0.68
2022-09-02T13:53:54.099Z,1.10
2022-09-02T13:56:14.430Z,1.75
2022-09-02T13:58:52.923Z,1.70
2022-09-02T14:01:27.734Z,1.20
2022-09-02T14:03:58.080Z,0.75
2022-09-02T14:06:29.896Z,0.80
2022-09-02T14:09:02.644Z,0.65
2022-09-02T14:11:42.690Z,0.88
2022-09-02T14:14:14.362Z,0.82
2022-09-02T14:16:40.952Z,0.90
2022-09-02T14:19:25.834Z,0.65
2022-09-02T14:21:58.777Z,0.60
2022-09-02T14:24:29.008Z,0.35
2022-09-02T14:26:57.904Z,0.70
2022-09-02T14:29:26.574Z,0.22
2022-09-02T14:32:10.973Z,2.38
2022-09-02T14:34:40.448Z,1.70
2022-09-02T14:37:28.799Z,0.47
2022-09-02T14:40:11.685Z,0.50
2022-09-02T14:42:53.742Z,0.63
2022-09-02T14:45:34.115Z,0.30
2022-09-02T14:48:10.823Z,0.80
2022-09-02T14:50:38.396Z,0.70
2022-09-02T14:53:09.237Z,0.60
2022-09-02T14:55:44.702Z,0.40
2022-09-02T14:58:11.635Z,0.52
2022-09-02T15:00:39.291Z,0.63
2022-09-02T15:03:07.135Z,0.47
2022-09-02T15:05:34.102Z,0.70
2022-09-02T15:08:00.677Z,0.82
2022-09-02T15:10:27.986Z,0.47
2022-09-02T15:12:57.606Z,0.50
2022-09-02T15:15:25.154Z,0.63
2022-09-02T15:17:51.757Z,0.40
2022-09-02T15:20:18.489Z,0.90
2022-09-02T15:22:45.559Z,0.80
2022-09-02T15:25:12.115Z,0.60
2022-09-02T15:27:39.040Z,0.63
2022-09-02T15:30:09.353Z,0.75
2022-09-02T15:32:37.551Z,0.60
2022-09-02T15:35:07.063Z,0.52
2022-09-02T15:37:37.436Z,0.70
2022-09-02T15:40:07.052Z,0.77
2022-09-02T15:42:35.568Z,0.60
2022-09-02T15:45:04.182Z,0.60
2022-09-02T15:47:31.280Z,0.55
2022-09-02T15:49:58.292Z,0.38
2022-09-02T15:52:25.133Z,0.40
2022-09-02T15:54:54.363Z,0.32
2022-09-02T15:57:21.887Z,0.50
2022-09-02T15:59:48.847Z,0.57
2022-09-02T16:02:16.120Z,0.65
2022-09-02T16:04:42.777Z,0.80
2022-09-02T16:07:09.716Z,0.93
2022-09-02T16:09:49.768Z,0.80
2022-09-02T16:12:16.453Z,0.50
2022-09-02T16:14:43.426Z,0.60
2022-09-02T16:17:10.556Z,0.50
2022-09-02T16:19:40.203Z,0.55
2022-09-02T16:22:07.082Z,0.60
2022-09-02T16:24:34.104Z,0.68
2022-09-02T16:27:00.836Z,1.42
2022-09-02T16:29:28.428Z,1.50
2022-09-02T16:32:23.551Z,1.07
2022-09-02T16:34:42.597Z,2.08
2022-09-02T16:37:09.177Z,1.20
2022-09-02T16:39:36.410Z,1.92
2022-09-02T16:42:04.626Z,0.95
2022-09-02T16:44:33.985Z,1.10
2022-09-02T16:47:00.899Z,1.40
2022-09-02T16:49:27.738Z,7.33
2022-09-02T16:51:58.476Z,11.60
2022-09-02T16:54:31.533Z,7.68
2022-09-02T16:57:00.937Z,3.17
2022-09-02T16:59:27.907Z,2.60
2022-09-02T17:01:54.578Z,1.70
2022-09-02T17:04:21.266Z,1.97
2022-09-02T17:06:48.866Z,1.52
2022-09-02T17:09:16.675Z,1.57
2022-09-02T17:11:45.598Z,1.50
2022-09-02T17:14:19.657Z,0.90
2022-09-02T17:16:49.473Z,1.50
2022-09-02T17:19:21.900Z,4.57
2022-09-02T17:21:54.084Z,2.30
2022-09-02T17:24:23.483Z,2.60
2022-09-02T17:26:56.272Z,2.50
2022-09-02T17:29:48.684Z,3.43
2022-09-02T17:32:11.982Z,2.37
2022-09-02T17:34:38.648Z,2.07
2022-09-02T17:37:05.733Z,1.90
2022-09-02T17:39:34.422Z,2.05
2022-09-02T17:42:03.079Z,1.92
2022-09-02T17:44:39.690Z,2.42
2022-09-02T17:47:08.004Z,1.97
2022-09-02T17:49:36.799Z,1.80
2022-09-02T17:52:07.014Z,7.43
2022-09-02T17:54:34.890Z,8.88
2022-09-02T17:57:14.854Z,5.50
2022-09-02T18:00:05.875Z,5.77
2022-09-02T18:02:35.626Z,4.82
2022-09-02T18:05:29.302Z,4.17
2022-09-02T18:08:04.002Z,4.83
2022-09-02T18:10:38.904Z,4.22
2022-09-02T18:13:14.131Z,5.13
2022-09-02T18:15:49.034Z,4.15
2022-09-02T18:18:17.988Z,4.07
2022-09-02T18:20:53.655Z,3.67
2022-09-02T18:23:49.291Z,4.47
2022-09-02T18:26:42.358Z,4.37
2022-09-02T18:29:24.583Z,5.70
2022-09-02T18:32:17.430Z,5.83
2022-09-02T18:35:11.637Z,5.07
2022-09-02T18:38:07.071Z,8.37
2022-09-02T18:41:22.535Z,25.67
2022-09-02T18:44:13.731Z,4.77
2022-09-02T18:47:05.485Z,5.33
2022-09-02T18:49:36.565Z,4.30
2022-09-02T18:52:08.498Z,5.00
2022-09-02T18:54:45.609Z,4.30
2022-09-02T18:57:13.329Z,4.10
2022-09-02T19:00:01.909Z,3.33
2022-09-02T19:02:46.298Z,3.60
2022-09-02T19:05:20.722Z,3.70
2022-09-02T19:08:21.055Z,3.67
2022-09-02T19:10:48.137Z,5.93
2022-09-02T19:13:15.587Z,4.50
2022-09-02T19:15:42.855Z,4.10
2022-09-02T19:18:10.858Z,3.63
2022-09-02T19:20:39.036Z,3.13
2022-09-02T19:23:08.470Z,3.73
2022-09-02T19:25:36.674Z,2.80
2022-09-02T19:28:06.598Z,2.97
2022-09-02T19:30:37.277Z,2.70
2022-09-02T19:33:07.728Z,6.70
2022-09-02T19:35:36.664Z,3.70
2022-09-02T19:38:04.043Z,42.67
2022-09-02T19:40:33.995Z,46.07
2022-09-02T19:43:03.958Z,13.57
2022-09-02T19:45:37.019Z,2.90
2022-09-02T19:48:08.115Z,3.13
2022-09-02T19:50:38.025Z,2.80
2022-09-02T19:53:04.791Z,6.80
2022-09-02T19:55:33.950Z,2.93
2022-09-02T19:58:03.038Z,3.10
2022-09-02T20:00:31.389Z,3.13
2022-09-02T20:02:58.262Z,3.27
2022-09-02T20:05:26.018Z,4.70
2022-09-02T20:08:03.343Z,3.77
2022-09-02T20:10:30.729Z,4.40
2022-09-02T20:12:59.223Z,4.47
2022-09-02T20:15:26.249Z,4.50
2022-09-02T20:17:53.338Z,4.47
2022-09-02T20:20:22.848Z,3.97
2022-09-02T20:22:55.308Z,3.47
2022-09-02T20:25:31.801Z,3.23
2022-09-02T20:28:05.433Z,3.50
2022-09-02T20:30:36.291Z,2.83
2022-09-02T20:33:19.773Z,2.53
2022-09-02T20:36:09.493Z,2.53
2022-09-02T20:38:57.864Z,2.63
2022-09-02T20:41:56.822Z,2.63
2022-09-02T20:45:14.233Z,2.63
2022-09-02T20:47:52.103Z,2.70
2022-09-02T20:51:00.145Z,2.30
2022-09-02T20:54:01.156Z,2.83
2022-09-02T20:56:53.426Z,2.60
2022-09-02T20:59:20.546Z,2.17
2022-09-02T21:01:48.479Z,2.20
2022-09-02T21:04:26.545Z,2.20
2022-09-02T21:07:02.378Z,2.27
2022-09-02T21:09:56.738Z,2.37
2022-09-02T21:12:37.362Z,2.53
2022-09-02T21:15:13.084Z,2.37
2022-09-02T21:17:50.552Z,2.80
2022-09-02T21:20:26.021Z,3.00
2022-09-02T21:22:58.489Z,2.97
2022-09-02T21:25:36.170Z,2.60
2022-09-02T21:28:37.992Z,2.87
2022-09-02T21:31:28.855Z,2.20
2022-09-02T21:34:01.051Z,2.63
2022-09-02T21:36:32.561Z,2.50
2022-09-02T21:39:06.612Z,2.80
2022-09-02T21:41:41.153Z,2.63
2022-09-02T21:44:28.202Z,2.80
2022-09-02T21:47:15.428Z,2.33
2022-09-02T21:49:51.021Z,2.33
2022-09-02T21:52:48.944Z,3.30
2022-09-02T21:55:31.397Z,2.40
2022-09-02T21:58:31.680Z,1.77
2022-09-02T22:01:07.881Z,2.03
2022-09-02T22:03:49.862Z,1.70
2022-09-02T22:06:36.399Z,1.80
2022-09-02T22:09:09.234Z,2.23
2022-09-02T22:12:16.817Z,1.80
2022-09-02T22:14:59.207Z,1.50
2022-09-02T22:17:35.341Z,1.60
2022-09-02T22:20:05.569Z,1.70
2022-09-02T22:22:38.948Z,2.07
2022-09-02T22:25:10.734Z,1.93
2022-09-02T22:27:40.653Z,2.00
2022-09-02T22:30:14.588Z,2.10
2022-09-02T22:32:57.769Z,2.17
2022-09-02T22:35:36.307Z,1.70
2022-09-02T22:38:29.072Z,2.00
2022-09-02T22:41:14.169Z,1.80
2022-09-02T22:43:45.665Z,2.10
2022-09-02T22:46:43.598Z,1.90
2022-09-02T22:49:34.033Z,1.93
2022-09-02T22:52:43.970Z,1.90
2022-09-02T22:55:15.992Z,11.73
2022-09-02T22:57:57.664Z,2.47
2022-09-02T23:00:25.924Z,3.57
2022-09-02T23:03:20.903Z,2.20
2022-09-02T23:06:03.215Z,1.90
2022-09-02T23:08:31.753Z,2.70
2022-09-02T23:11:06.823Z,3.87
2022-09-02T23:14:07.189Z,3.83
2022-09-02T23:16:48.156Z,2.20
2022-09-02T23:19:37.311Z,2.67
2022-09-02T23:22:16.095Z,2.40
2022-09-02T23:24:49.295Z,2.20
2022-09-02T23:27:33.357Z,1.90
2022-09-02T23:30:04.366Z,1.63
2022-09-02T23:32:52.116Z,1.87
2022-09-02T23:35:23.842Z,2.20
2022-09-02T23:38:17.028Z,1.60
2022-09-02T23:40:46.579Z,1.93
2022-09-02T23:43:18.399Z,1.73
2022-09-02T23:45:46.738Z,2.13
2022-09-02T23:48:28.842Z,2.00
2022-09-02T23:51:17.535Z,1.90
2022-09-02T23:54:24.822Z,2.40
2022-09-02T23:57:12.151Z,1.43
